createdAt,value
2023-04-11T00:00:36.156Z,6.82
2023-04-11T00:01:36.333Z,6.83
2023-04-11T00:02:36.311Z,6.83
2023-04-11T00:03:36.556Z,6.82
2023-04-11T00:04:36.370Z,6.82
2023-04-11T00:05:36.343Z,6.8
2023-04-11T00:06:36.406Z,6.86
2023-04-11T00:07:36.427Z,6.88
2023-04-11T00:08:36.478Z,6.85
2023-04-11T00:09:36.511Z,6.83
2023-04-11T00:10:36.544Z,6.79
2023-04-11T00:11:36.601Z,6.81
2023-04-11T00:12:36.633Z,6.84
2023-04-11T00:13:36.673Z,6.85
2023-04-11T00:14:36.708Z,6.85
2023-04-11T00:15:36.745Z,6.87
2023-04-11T00:16:36.870Z,6.87
2023-04-11T00:17:36.868Z,6.91
2023-04-11T00:18:36.865Z,6.84
2023-04-11T00:19:36.909Z,6.83
2023-04-11T00:20:36.932Z,6.8
2023-04-11T00:21:36.986Z,6.79
2023-04-11T00:22:37.017Z,6.82
2023-04-11T00:23:37.049Z,6.81
2023-04-11T00:24:37.093Z,6.82
2023-04-11T00:25:37.150Z,6.81
2023-04-11T00:26:37.207Z,6.79
2023-04-11T00:27:37.227Z,6.8
2023-04-11T00:28:37.249Z,6.82
2023-04-11T00:29:37.294Z,6.83
2023-04-11T00:30:37.330Z,6.8
2023-04-11T00:31:37.430Z,6.77
2023-04-11T00:32:37.446Z,6.74
2023-04-11T00:34:37.489Z,6.81
2023-04-11T00:35:37.548Z,6.85
2023-04-11T00:36:37.726Z,6.83
2023-04-11T00:37:37.603Z,6.82
2023-04-11T00:38:37.646Z,6.8
2023-04-11T00:39:37.692Z,6.76
2023-04-11T00:40:37.735Z,6.73
2023-04-11T00:41:37.774Z,6.74
2023-04-11T00:42:37.800Z,6.73
2023-04-11T00:43:37.834Z,6.75
2023-04-11T00:44:37.884Z,6.73
2023-04-11T00:45:38.012Z,6.74
2023-04-11T00:46:37.981Z,6.79
2023-04-11T00:47:38.073Z,6.74
2023-04-11T00:48:38.041Z,6.69
2023-04-11T00:49:38.079Z,6.72
2023-04-11T00:50:38.116Z,6.73
2023-04-11T00:51:38.206Z,6.75
2023-04-11T00:52:38.203Z,6.77
2023-04-11T00:53:38.226Z,6.8
2023-04-11T00:54:38.260Z,6.78
2023-04-11T00:55:38.305Z,6.76
2023-04-11T00:56:38.370Z,6.78
2023-04-11T00:57:38.387Z,6.72
2023-04-11T00:58:38.441Z,6.72
2023-04-11T00:59:38.493Z,6.76
2023-04-11T01:00:38.498Z,6.73
2023-04-11T01:01:38.676Z,6.71
2023-04-11T01:02:38.780Z,6.81
2023-04-11T01:03:38.762Z,6.78
2023-04-11T01:04:38.668Z,6.78
2023-04-11T01:05:38.702Z,6.79
2023-04-11T01:06:38.762Z,6.79
2023-04-11T01:07:38.779Z,6.74
2023-04-11T01:08:38.805Z,6.74
2023-04-11T01:09:38.858Z,6.77
2023-04-11T01:10:38.894Z,6.81
2023-04-11T01:11:38.954Z,6.76
2023-04-11T01:12:38.971Z,6.73
2023-04-11T01:13:39.015Z,6.75
2023-04-11T01:14:39.053Z,6.77
2023-04-11T01:15:39.109Z,6.76
2023-04-11T01:16:39.214Z,6.77
2023-04-11T01:17:39.238Z,6.77
2023-04-11T01:18:39.224Z,6.81
2023-04-11T01:19:39.261Z,6.78
2023-04-11T01:20:39.294Z,6.78
2023-04-11T01:21:39.340Z,6.77
2023-04-11T01:22:39.388Z,6.78
2023-04-11T01:23:39.432Z,6.86
2023-04-11T01:25:11.026Z,6.92
2023-04-11T01:25:39.501Z,6.85
2023-04-11T01:26:39.539Z,6.85
2023-04-11T01:27:39.614Z,6.83
2023-04-11T01:28:39.622Z,6.86
2023-04-11T01:29:39.672Z,6.76
2023-04-11T01:30:39.774Z,6.76
2023-04-11T01:31:39.751Z,6.76
2023-04-11T01:32:39.836Z,6.8
2023-04-11T01:33:39.831Z,6.79
2023-04-11T01:34:39.865Z,6.81
2023-04-11T01:35:39.899Z,6.78
2023-04-11T01:36:39.944Z,6.8
2023-04-11T01:37:39.984Z,6.77
2023-04-11T01:38:40.015Z,6.78
2023-04-11T01:39:40.062Z,6.8
2023-04-11T01:40:40.105Z,6.81
2023-04-11T01:41:40.177Z,6.8
2023-04-11T01:42:40.190Z,6.77
2023-04-11T01:43:40.219Z,6.79
2023-04-11T01:44:40.252Z,6.8
2023-04-11T01:45:40.317Z,6.77
2023-04-11T01:46:40.355Z,6.74
2023-04-11T01:47:40.514Z,6.72
2023-04-11T01:48:40.540Z,6.74
2023-04-11T01:49:40.454Z,6.75
2023-04-11T01:50:40.495Z,6.76
2023-04-11T01:51:40.550Z,6.7
2023-04-11T01:52:40.581Z,6.68
2023-04-11T01:53:40.610Z,6.7
2023-04-11T01:54:40.650Z,6.76
2023-04-11T01:55:40.681Z,6.78
2023-04-11T01:56:40.721Z,6.79
2023-04-11T01:57:40.791Z,6.76
2023-04-11T01:58:40.811Z,6.77
2023-04-11T01:59:40.831Z,6.73
2023-04-11T02:00:40.872Z,6.74
2023-04-11T02:01:40.998Z,6.69
2023-04-11T02:02:41.049Z,6.73
2023-04-11T02:03:41.129Z,6.71
2023-04-11T02:04:41.044Z,6.7
2023-04-11T02:05:41.066Z,6.76
2023-04-11T02:06:41.135Z,6.78
2023-04-11T02:07:41.147Z,6.79
2023-04-11T02:08:41.189Z,6.81
2023-04-11T02:09:41.222Z,6.78
2023-04-11T02:10:41.251Z,6.74
2023-04-11T02:11:41.284Z,6.76
2023-04-11T02:12:41.330Z,6.8
2023-04-11T02:13:41.384Z,6.79
2023-04-11T02:14:41.400Z,6.71
2023-04-11T02:15:41.449Z,6.74
2023-04-11T02:16:41.481Z,6.73
2023-04-11T02:17:41.533Z,6.74
2023-04-11T02:18:41.581Z,6.75
2023-04-11T02:19:41.603Z,6.74
2023-04-11T02:20:41.642Z,6.72
2023-04-11T02:21:41.684Z,6.77
2023-04-11T02:22:41.726Z,6.78
2023-04-11T02:23:41.807Z,6.79
2023-04-11T02:24:41.793Z,6.71
2023-04-11T02:25:41.843Z,6.69
2023-04-11T02:26:41.882Z,6.7
2023-04-11T02:27:41.919Z,6.73
2023-04-11T02:28:41.965Z,6.73
2023-04-11T02:29:41.996Z,6.68
2023-04-11T02:30:42.158Z,6.7
2023-04-11T02:31:42.162Z,6.72
2023-04-11T02:32:42.132Z,6.71
2023-04-11T02:33:42.149Z,6.68
2023-04-11T02:34:42.191Z,6.67
2023-04-11T02:35:42.268Z,6.69
2023-04-11T02:36:42.295Z,6.7
2023-04-11T02:37:42.320Z,6.7
2023-04-11T02:38:42.372Z,6.71
2023-04-11T02:39:42.412Z,6.74
2023-04-11T02:40:42.447Z,6.63
2023-04-11T02:41:42.546Z,6.63
2023-04-11T02:42:42.531Z,6.64
2023-04-11T02:43:42.572Z,6.65
2023-04-11T02:44:42.599Z,6.69
2023-04-11T02:45:42.644Z,6.67
2023-04-11T02:46:42.731Z,6.69
2023-04-11T02:47:42.751Z,6.68
2023-04-11T02:48:42.753Z,6.7
2023-04-11T02:49:42.788Z,6.64
2023-04-11T02:50:42.827Z,6.67
2023-04-11T02:51:42.872Z,6.7
2023-04-11T02:52:42.894Z,6.65
2023-04-11T02:53:42.957Z,6.64
2023-04-11T02:54:42.979Z,6.67
2023-04-11T02:55:43.019Z,6.67
2023-04-11T02:56:43.057Z,6.67
2023-04-11T02:57:43.101Z,6.66
2023-04-11T02:58:43.138Z,6.64
2023-04-11T02:59:43.180Z,6.67
2023-04-11T03:00:43.235Z,6.67
2023-04-11T03:01:43.414Z,6.65
2023-04-11T03:02:43.544Z,6.64
2023-04-11T03:03:43.564Z,6.68
2023-04-11T03:04:43.366Z,6.66
2023-04-11T03:05:43.435Z,6.65
2023-04-11T03:06:43.451Z,6.66
2023-04-11T03:07:43.497Z,6.6
2023-04-11T03:08:43.537Z,6.59
2023-04-11T03:09:43.581Z,6.56
2023-04-11T03:10:43.644Z,6.58
2023-04-11T03:11:44.537Z,6.61
2023-04-11T03:12:43.694Z,6.59
2023-04-11T03:13:43.742Z,6.63
2023-04-11T03:14:43.773Z,6.65
2023-04-11T03:15:43.853Z,6.69
2023-04-11T03:16:43.847Z,6.67
2023-04-11T03:17:43.930Z,6.65
2023-04-11T03:18:43.936Z,6.63
2023-04-11T03:19:43.965Z,6.64
2023-04-11T03:20:44.010Z,6.64
2023-04-11T03:21:44.065Z,6.65
2023-04-11T03:22:44.094Z,6.64
2023-04-11T03:23:44.145Z,6.67
2023-04-11T03:24:44.171Z,6.65
2023-04-11T03:25:44.252Z,6.67
2023-04-11T03:26:44.286Z,6.66
2023-04-11T03:27:44.294Z,6.63
2023-04-11T03:28:44.323Z,6.63
2023-04-11T03:29:44.368Z,6.61
2023-04-11T03:30:44.426Z,6.6
2023-04-11T03:31:44.549Z,6.62
2023-04-11T03:32:44.532Z,6.66
2023-04-11T03:33:44.549Z,6.66
2023-04-11T03:34:44.568Z,6.65
2023-04-11T03:35:44.637Z,6.64
2023-04-11T03:36:44.639Z,6.65
2023-04-11T03:37:44.674Z,6.67
2023-04-11T03:38:44.727Z,6.69
2023-04-11T03:39:44.744Z,6.7
2023-04-11T03:40:44.798Z,6.67
2023-04-11T03:41:44.839Z,6.69
2023-04-11T03:42:44.882Z,6.72
2023-04-11T03:43:44.907Z,6.76
2023-04-11T03:44:44.947Z,6.76
2023-04-11T03:45:44.984Z,6.8
2023-04-11T03:46:45.068Z,6.79
2023-04-11T03:47:45.081Z,6.77
2023-04-11T03:48:45.113Z,6.8
2023-04-11T03:49:45.146Z,6.87
2023-04-11T03:50:45.192Z,6.94
2023-04-11T03:51:45.227Z,6.93
2023-04-11T03:52:45.271Z,6.97
2023-04-11T03:53:45.314Z,6.97
2023-04-11T03:54:47.125Z,6.95
2023-04-11T03:55:45.405Z,6.99
2023-04-11T03:56:45.438Z,7
2023-04-11T03:57:45.478Z,7.03
2023-04-11T03:58:45.542Z,7.1
2023-04-11T03:59:45.558Z,7.21
2023-04-11T04:00:45.607Z,7.24
2023-04-11T04:01:45.675Z,7.24
2023-04-11T04:02:45.938Z,7.23
2023-04-11T04:03:46.037Z,7.27
2023-04-11T04:04:45.988Z,7.27
2023-04-11T04:05:45.805Z,7.28
2023-04-11T04:06:45.863Z,7.29
2023-04-11T04:07:45.891Z,7.33
2023-04-11T04:08:45.923Z,7.39
2023-04-11T04:09:45.968Z,7.48
2023-04-11T04:10:45.996Z,7.49
2023-04-11T04:11:46.042Z,7.49
2023-04-11T04:12:46.083Z,7.54
2023-04-11T04:13:46.113Z,7.55
2023-04-11T04:14:46.157Z,7.54
2023-04-11T04:15:46.192Z,7.55
2023-04-11T04:16:46.285Z,7.57
2023-04-11T04:17:46.349Z,7.57
2023-04-11T04:18:46.316Z,7.57
2023-04-11T04:19:46.352Z,7.56
2023-04-11T04:20:46.395Z,7.6
2023-04-11T04:21:46.432Z,7.62
2023-04-11T04:22:46.488Z,7.62
2023-04-11T04:23:46.503Z,7.58
2023-04-11T04:24:46.541Z,7.61
2023-04-11T04:25:46.585Z,7.63
2023-04-11T04:26:46.636Z,7.62
2023-04-11T04:27:46.674Z,7.6
2023-04-11T04:28:46.710Z,7.62
2023-04-11T04:29:47.102Z,7.63
2023-04-11T04:30:46.794Z,7.64
2023-04-11T04:31:46.855Z,7.63
2023-04-11T04:32:46.900Z,7.61
2023-04-11T04:33:46.913Z,7.63
2023-04-11T04:34:47.080Z,7.66
2023-04-11T04:35:47.016Z,7.66
2023-04-11T04:36:47.030Z,7.69
2023-04-11T04:37:47.083Z,7.72
2023-04-11T04:38:47.112Z,7.49
2023-04-11T04:39:47.142Z,7.52
2023-04-11T04:40:49.667Z,7.53
2023-04-11T04:41:47.217Z,7.54
2023-04-11T04:42:47.259Z,7.55
2023-04-11T04:43:47.774Z,7.55
2023-04-11T04:44:47.575Z,7.56
2023-04-11T04:45:48.819Z,7.57
2023-04-11T04:46:47.646Z,7.54
2023-04-11T04:47:49.422Z,7.5
2023-04-11T04:48:52.337Z,7.5
2023-04-11T04:49:49.451Z,7.51
2023-04-11T04:51:53.578Z,7.51
2023-04-11T04:53:03.060Z,7.52
2023-04-11T04:53:48.883Z,7.53
2023-04-11T04:54:47.714Z,7.54
2023-04-11T04:55:48.458Z,7.55
2023-04-11T04:56:55.969Z,7.53
2023-04-11T04:57:51.582Z,7.53
2023-04-11T05:00:48.446Z,7.54
2023-04-11T05:02:48.839Z,7.54
2023-04-11T05:03:48.185Z,7.55
2023-04-11T05:03:50.869Z,7.57
2023-04-11T05:04:49.299Z,7.53
2023-04-11T05:06:49.907Z,7.53
2023-04-11T05:08:48.487Z,7.52
2023-04-11T05:09:48.534Z,7.54
2023-04-11T05:10:52.608Z,7.55
2023-04-11T05:11:49.322Z,7.55
2023-04-11T05:12:48.441Z,7.52
2023-04-11T05:13:49.912Z,7.53
2023-04-11T05:15:20.875Z,7.51
2023-04-11T05:16:50.516Z,7.52
2023-04-11T05:20:48.709Z,7.54
2023-04-11T05:21:48.766Z,7.49
2023-04-11T05:22:48.793Z,7.49
2023-04-11T05:23:48.821Z,7.49
2023-04-11T05:24:48.869Z,7.5
2023-04-11T05:25:48.909Z,7.51
2023-04-11T05:26:48.951Z,7.5
2023-04-11T05:27:48.991Z,7.5
2023-04-11T05:28:49.017Z,7.5
2023-04-11T05:29:49.075Z,7.5
2023-04-11T05:30:49.112Z,7.5
2023-04-11T05:31:49.160Z,7.46
2023-04-11T05:32:49.283Z,7.47
2023-04-11T05:33:49.203Z,7.46
2023-04-11T05:34:49.255Z,7.45
2023-04-11T05:35:49.339Z,7.47
2023-04-11T05:36:49.364Z,7.48
2023-04-11T05:37:49.384Z,7.5
2023-04-11T05:38:49.416Z,7.5
2023-04-11T05:39:49.467Z,7.54
2023-04-11T05:40:49.493Z,7.54
2023-04-11T05:41:49.558Z,7.56
2023-04-11T05:42:49.590Z,7.56
2023-04-11T05:43:49.607Z,7.55
2023-04-11T05:44:49.656Z,7.55
2023-04-11T05:45:49.750Z,7.54
2023-04-11T05:46:49.741Z,7.56
2023-04-11T05:47:49.797Z,7.56
2023-04-11T05:48:49.802Z,7.56
2023-04-11T05:49:49.845Z,7.56
2023-04-11T05:50:49.892Z,7.56
2023-04-11T05:51:49.945Z,7.56
2023-04-11T05:52:49.974Z,7.57
2023-04-11T05:53:50.005Z,7.56
2023-04-11T05:54:50.052Z,7.56
2023-04-11T05:55:50.083Z,7.57
2023-04-11T05:56:50.116Z,7.56
2023-04-11T05:57:50.156Z,7.56
2023-04-11T05:58:50.201Z,7.57
2023-04-11T05:59:50.247Z,7.6
2023-04-11T06:00:50.267Z,7.61
2023-04-11T06:01:50.331Z,7.66
2023-04-11T06:02:50.421Z,7.68
2023-04-11T06:03:50.772Z,7.68
2023-04-11T06:04:50.440Z,7.68
2023-04-11T06:05:50.461Z,7.67
2023-04-11T06:06:50.528Z,7.73
2023-04-11T06:07:50.544Z,7.72
2023-04-11T06:08:50.591Z,7.72
2023-04-11T06:09:50.615Z,7.71
2023-04-11T06:10:50.661Z,7.73
2023-04-11T06:11:50.698Z,7.72
2023-04-11T06:12:50.720Z,7.72
2023-04-11T06:13:50.760Z,7.72
2023-04-11T06:14:50.801Z,7.72
2023-04-11T06:15:50.852Z,7.74
2023-04-11T06:16:50.873Z,7.76
2023-04-11T06:17:51.003Z,7.75
2023-04-11T06:18:50.955Z,7.76
2023-04-11T06:19:50.974Z,7.77
2023-04-11T06:20:51.023Z,7.76
2023-04-11T06:21:51.056Z,7.78
2023-04-11T06:22:51.125Z,7.77
2023-04-11T06:23:51.138Z,7.8
2023-04-11T06:24:51.168Z,7.78
2023-04-11T06:25:51.210Z,7.78
2023-04-11T06:26:51.257Z,7.77
2023-04-11T06:27:51.340Z,7.76
2023-04-11T06:29:51.391Z,7.75
2023-04-11T06:30:51.460Z,7.75
2023-04-11T06:31:51.460Z,7.76
2023-04-11T06:32:51.564Z,7.75
2023-04-11T06:33:51.550Z,7.75
2023-04-11T06:34:51.588Z,7.75
2023-04-11T06:35:51.677Z,7.77
2023-04-11T06:36:51.651Z,7.76
2023-04-11T06:37:51.689Z,7.76
2023-04-11T06:38:51.753Z,7.77
2023-04-11T06:39:51.765Z,7.78
2023-04-11T06:40:51.803Z,7.78
2023-04-11T06:41:51.844Z,7.78
2023-04-11T06:42:51.887Z,7.79
2023-04-11T06:43:51.936Z,7.78
2023-04-11T06:44:51.978Z,7.79
2023-04-11T06:45:51.997Z,7.79
2023-04-11T06:46:52.117Z,7.82
2023-04-11T06:47:52.123Z,7.83
2023-04-11T06:48:52.110Z,7.85
2023-04-11T06:49:52.154Z,7.85
2023-04-11T06:50:52.184Z,7.89
2023-04-11T06:51:52.242Z,7.89
2023-04-11T06:52:52.287Z,7.91
2023-04-11T06:53:52.300Z,7.9
2023-04-11T06:54:52.343Z,7.96
2023-04-11T06:55:52.396Z,7.95
2023-04-11T06:56:52.459Z,7.95
2023-04-11T06:57:52.478Z,7.95
2023-04-11T06:58:52.502Z,7.96
2023-04-11T06:59:52.554Z,7.95
2023-04-11T07:00:52.590Z,7.95
2023-04-11T07:01:52.729Z,8.02
2023-04-11T07:02:52.957Z,8.03
2023-04-11T07:03:52.846Z,8.03
2023-04-11T07:04:52.931Z,8.07
2023-04-11T07:05:52.779Z,8.08
2023-04-11T07:06:52.807Z,8.08
2023-04-11T07:07:52.854Z,8.07
2023-04-11T07:08:52.898Z,8.09
2023-04-11T07:09:52.931Z,8.12
2023-04-11T07:10:52.981Z,8.14
2023-04-11T07:11:53.035Z,8.16
2023-04-11T07:12:53.040Z,8.16
2023-04-11T07:13:53.339Z,8.21
2023-04-11T07:14:53.128Z,8.24
2023-04-11T07:15:53.190Z,8.26
2023-04-11T07:16:53.224Z,8.27
2023-04-11T07:17:53.268Z,8.24
2023-04-11T07:18:53.275Z,8.24
2023-04-11T07:19:53.313Z,8.23
2023-04-11T07:20:53.349Z,8.25
2023-04-11T07:21:53.424Z,8.27
2023-04-11T07:22:53.472Z,8.27
2023-04-11T07:23:53.654Z,8.25
2023-04-11T07:24:53.504Z,8.26
2023-04-11T07:25:53.550Z,8.22
2023-04-11T07:26:53.600Z,8.22
2023-04-11T07:27:53.649Z,8.23
2023-04-11T07:28:53.653Z,8.26
2023-04-11T07:29:53.704Z,8.29
2023-04-11T07:30:53.733Z,8.28
2023-04-11T07:31:53.831Z,8.29
2023-04-11T07:32:53.862Z,8.28
2023-04-11T07:33:54.167Z,8.31
2023-04-11T07:34:53.891Z,8.31
2023-04-11T07:35:53.954Z,8.37
2023-04-11T07:36:53.977Z,8.47
2023-04-11T07:37:54.014Z,8.46
2023-04-11T07:38:54.065Z,8.47
2023-04-11T07:39:54.091Z,8.5
2023-04-11T07:40:54.124Z,8.47
2023-04-11T07:41:54.199Z,8.48
2023-04-11T07:43:54.529Z,8.45
2023-04-11T07:44:54.269Z,8.44
2023-04-11T07:45:54.345Z,8.45
2023-04-11T07:46:54.368Z,8.42
2023-04-11T07:47:54.486Z,8.42
2023-04-11T07:48:54.435Z,8.43
2023-04-11T07:49:54.477Z,8.42
2023-04-11T07:50:54.512Z,8.39
2023-04-11T07:51:54.558Z,8.38
2023-04-11T07:52:54.616Z,8.38
2023-04-11T07:53:54.860Z,8.38
2023-04-11T07:54:54.669Z,8.36
2023-04-11T07:55:54.711Z,8.33
2023-04-11T07:56:54.746Z,8.29
2023-04-11T07:57:54.795Z,8.25
2023-04-11T07:58:54.824Z,8.18
2023-04-11T07:59:54.862Z,8.14
2023-04-11T08:00:54.910Z,8.05
2023-04-11T08:01:55.015Z,7.95
2023-04-11T08:02:55.152Z,7.91
2023-04-11T08:03:55.391Z,7.85
2023-04-11T08:04:55.116Z,7.82
2023-04-11T08:05:55.101Z,7.8
2023-04-11T08:06:55.130Z,7.76
2023-04-11T08:07:55.177Z,7.69
2023-04-11T08:08:55.213Z,7.7
2023-04-11T08:09:55.240Z,7.69
2023-04-11T08:10:55.279Z,7.69
2023-04-11T08:11:55.313Z,7.67
2023-04-11T08:12:55.353Z,7.68
2023-04-11T08:13:55.675Z,7.66
2023-04-11T08:14:55.426Z,7.64
2023-04-11T08:15:55.454Z,7.66
2023-04-11T08:16:55.554Z,7.62
2023-04-11T08:17:55.564Z,7.61
2023-04-11T08:18:55.566Z,7.6
2023-04-11T08:19:55.614Z,7.59
2023-04-11T08:20:55.645Z,7.61
2023-04-11T08:21:55.723Z,7.64
2023-04-11T08:22:55.725Z,7.64
2023-04-11T08:23:56.008Z,7.65
2023-04-11T08:24:55.793Z,7.66
2023-04-11T08:25:55.831Z,7.69
2023-04-11T08:26:55.887Z,7.7
2023-04-11T08:27:55.920Z,7.71
2023-04-11T08:28:55.953Z,7.74
2023-04-11T08:29:55.986Z,7.75
2023-04-11T08:30:56.039Z,7.76
2023-04-11T08:31:56.073Z,7.76
2023-04-11T08:32:56.176Z,7.81
2023-04-11T08:33:57.745Z,7.82
2023-04-11T08:34:56.216Z,7.79
2023-04-11T08:35:56.450Z,7.79
2023-04-11T08:36:56.317Z,7.86
2023-04-11T08:37:56.322Z,7.86
2023-04-11T08:38:56.352Z,7.83
2023-04-11T08:39:56.418Z,7.84
2023-04-11T08:40:56.446Z,7.84
2023-04-11T08:41:56.476Z,7.83
2023-04-11T08:42:56.513Z,7.88
2023-04-11T08:43:56.693Z,7.91
2023-04-11T08:44:56.588Z,7.89
2023-04-11T08:45:56.707Z,7.88
2023-04-11T08:46:56.670Z,7.89
2023-04-11T08:47:56.745Z,7.89
2023-04-11T08:48:56.741Z,7.88
2023-04-11T08:49:56.775Z,7.9
2023-04-11T08:50:56.829Z,7.92
2023-04-11T08:51:56.863Z,7.99
2023-04-11T08:52:56.909Z,7.99
2023-04-11T08:53:57.107Z,8.01
2023-04-11T08:54:56.981Z,8.03
2023-04-11T08:55:57.020Z,8.03
2023-04-11T08:56:57.075Z,8.09
2023-04-11T08:57:57.094Z,8.11
2023-04-11T08:58:57.139Z,8.11
2023-04-11T08:59:57.170Z,8.21
2023-04-11T09:00:57.225Z,8.25
2023-04-11T09:01:57.362Z,8.26
2023-04-11T09:02:57.347Z,8.24
2023-04-11T09:03:57.769Z,8.25
2023-04-11T09:04:57.634Z,8.27
2023-04-11T09:05:57.400Z,8.32
2023-04-11T09:07:00.288Z,8.25
2023-04-11T09:08:57.550Z,8.26
2023-04-11T09:09:57.566Z,8.34
2023-04-11T09:10:57.611Z,8.38
2023-04-11T09:11:57.645Z,8.3
2023-04-11T09:12:57.678Z,8.34
2023-04-11T09:13:57.752Z,8.32
2023-04-11T09:14:57.738Z,8.28
2023-04-11T09:15:57.800Z,8.32
2023-04-11T09:16:57.828Z,8.3
2023-04-11T09:18:00.397Z,8.34
2023-04-11T09:18:58.101Z,8.4
2023-04-11T09:19:57.940Z,8.4
2023-04-11T09:20:57.979Z,8.46
2023-04-11T09:21:58.047Z,8.4
2023-04-11T09:23:58.252Z,8.48
2023-04-11T09:24:58.127Z,8.44
2023-04-11T09:25:58.167Z,8.45
2023-04-11T09:26:58.226Z,8.55
2023-04-11T09:27:58.254Z,8.52
2023-04-11T09:28:58.524Z,8.62
2023-04-11T09:29:58.315Z,8.56
2023-04-11T09:30:58.372Z,8.53
2023-04-11T09:31:58.400Z,8.52
2023-04-11T09:32:58.500Z,8.5
2023-04-11T09:33:58.754Z,8.51
2023-04-11T09:35:58.596Z,8.61
2023-04-11T09:36:58.589Z,8.59
2023-04-11T09:37:58.652Z,8.54
2023-04-11T09:38:58.688Z,8.5
2023-04-11T09:39:58.712Z,8.54
2023-04-11T09:40:58.780Z,8.44
2023-04-11T09:41:58.793Z,8.38
2023-04-11T09:42:58.843Z,8.36
2023-04-11T09:43:59.091Z,8.41
2023-04-11T09:44:58.919Z,8.42
2023-04-11T09:45:58.940Z,8.47
2023-04-11T09:46:59.087Z,8.56
2023-04-11T09:47:59.033Z,8.57
2023-04-11T09:48:59.050Z,8.6
2023-04-11T09:49:59.106Z,8.73
2023-04-11T09:50:59.139Z,8.84
2023-04-11T09:51:59.177Z,8.93
2023-04-11T09:52:59.486Z,8.92
2023-04-11T09:53:59.415Z,8.97
2023-04-11T09:54:59.293Z,9.16
2023-04-11T09:55:59.335Z,9.32
2023-04-11T09:56:59.378Z,9.44
2023-04-11T09:57:59.397Z,9.6
2023-04-11T09:58:59.432Z,9.86
2023-04-11T09:59:59.467Z,9.85
2023-04-11T10:00:59.508Z,9.69
2023-04-11T10:01:59.668Z,9.79
2023-04-11T10:02:59.780Z,9.97
2023-04-11T10:03:59.945Z,10.04
2023-04-11T10:04:59.714Z,10.09
2023-04-11T10:05:59.697Z,10.03
2023-04-11T10:06:59.749Z,9.94
2023-04-11T10:07:59.814Z,9.8
2023-04-11T10:08:59.817Z,9.77
2023-04-11T10:09:59.867Z,9.69
2023-04-11T10:10:59.889Z,9.77
2023-04-11T10:11:59.942Z,9.88
2023-04-11T10:12:59.995Z,9.86
2023-04-11T10:14:00.007Z,9.74
2023-04-11T10:15:00.053Z,9.75
2023-04-11T10:16:00.164Z,9.93
2023-04-11T10:17:00.129Z,9.95
2023-04-11T10:18:00.240Z,9.98
2023-04-11T10:19:00.273Z,10.11
2023-04-11T10:20:00.253Z,10.21
2023-04-11T10:21:00.286Z,10.28
2023-04-11T10:22:00.320Z,10.3
2023-04-11T10:23:00.386Z,10.29
2023-04-11T10:24:00.406Z,10.28
2023-04-11T10:25:00.431Z,10.15
2023-04-11T10:26:00.483Z,10.11
2023-04-11T10:27:00.531Z,10.12
2023-04-11T10:28:00.656Z,10.13
2023-04-11T10:29:00.605Z,10.04
2023-04-11T10:30:00.656Z,10.1
2023-04-11T10:31:00.680Z,10.07
2023-04-11T10:32:00.755Z,10.04
2023-04-11T10:33:00.774Z,10.06
2023-04-11T10:34:00.791Z,10.03
2023-04-11T10:35:00.818Z,9.96
2023-04-11T10:36:00.934Z,9.94
2023-04-11T10:37:00.901Z,9.86
2023-04-11T10:38:00.924Z,9.76
2023-04-11T10:39:00.974Z,9.75
2023-04-11T10:40:01.025Z,9.74
2023-04-11T10:41:01.075Z,9.72
2023-04-11T10:42:01.100Z,9.73
2023-04-11T10:43:01.134Z,9.64
2023-04-11T10:44:01.186Z,9.67
2023-04-11T10:45:01.212Z,9.67
2023-04-11T10:46:01.245Z,9.55
2023-04-11T10:47:01.331Z,9.55
2023-04-11T10:48:01.489Z,9.55
2023-04-11T10:49:01.382Z,9.43
2023-04-11T10:50:01.399Z,9.23
2023-04-11T10:51:01.456Z,9.29
2023-04-11T10:52:01.517Z,9.29
2023-04-11T10:53:01.523Z,9.29
2023-04-11T10:54:02.425Z,9.31
2023-04-11T10:55:01.681Z,9.43
2023-04-11T10:56:01.693Z,9.53
2023-04-11T10:57:01.709Z,9.69
2023-04-11T10:58:01.710Z,9.92
2023-04-11T10:59:01.759Z,9.95
2023-04-11T11:00:01.881Z,9.82
2023-04-11T11:01:01.859Z,9.85
2023-04-11T11:02:02.118Z,9.83
2023-04-11T11:03:02.100Z,9.8
2023-04-11T11:04:02.314Z,9.72
2023-04-11T11:05:02.091Z,9.66
2023-04-11T11:06:02.020Z,9.64
2023-04-11T11:07:02.079Z,9.64
2023-04-11T11:08:02.145Z,9.74
2023-04-11T11:09:02.132Z,9.75
2023-04-11T11:10:02.177Z,9.8
2023-04-11T11:11:02.205Z,9.9
2023-04-11T11:12:02.255Z,9.92
2023-04-11T11:13:02.306Z,9.94
2023-04-11T11:14:02.355Z,9.95
2023-04-11T11:15:02.362Z,10.57
2023-04-11T11:16:02.432Z,10.42
2023-04-11T11:17:02.523Z,10.43
2023-04-11T11:18:02.526Z,10.49
2023-04-11T11:19:02.545Z,10.57
2023-04-11T11:20:02.567Z,10.62
2023-04-11T11:21:02.605Z,10.59
2023-04-11T11:22:02.650Z,10.69
2023-04-11T11:23:02.680Z,10.62
2023-04-11T11:24:02.729Z,10.49
2023-04-11T11:25:02.761Z,10.56
2023-04-11T11:26:02.917Z,10.52
2023-04-11T11:28:02.886Z,10.52
2023-04-11T11:29:02.934Z,10.58
2023-04-11T11:30:02.956Z,10.62
2023-04-11T11:31:03.086Z,10.61
2023-04-11T11:33:03.164Z,10.61
2023-04-11T11:34:21.292Z,10.6
2023-04-11T11:35:03.165Z,10.57
2023-04-11T11:36:03.206Z,10.52
2023-04-11T11:37:03.244Z,10.47
2023-04-11T11:38:03.324Z,10.43
2023-04-11T11:39:03.330Z,10.52
2023-04-11T11:40:03.384Z,10.64
2023-04-11T11:41:03.418Z,10.62
2023-04-11T11:42:03.473Z,10.77
2023-04-11T11:43:03.504Z,10.57
2023-04-11T11:44:03.587Z,10.43
2023-04-11T11:46:04.827Z,10.36
2023-04-11T11:47:03.649Z,10.34
2023-04-11T11:48:03.708Z,10.31
2023-04-11T11:49:03.773Z,10.28
2023-04-11T11:50:03.796Z,10.4
2023-04-11T11:51:03.810Z,10.47
2023-04-11T11:52:03.846Z,10.55
2023-04-11T11:53:03.886Z,10.59
2023-04-11T11:54:03.964Z,10.5
2023-04-11T11:55:03.996Z,10.44
2023-04-11T11:56:04.044Z,10.37
2023-04-11T11:57:04.096Z,10.35
2023-04-11T11:58:04.106Z,10.41
2023-04-11T11:59:04.141Z,10.47
2023-04-11T12:00:04.196Z,10.55
2023-04-11T12:01:04.235Z,10.43
2023-04-11T12:02:04.331Z,10.44
2023-04-11T12:03:04.453Z,10.42
2023-04-11T12:04:04.515Z,10.37
2023-04-11T12:05:04.523Z,10.38
2023-04-11T12:06:04.429Z,10.37
2023-04-11T12:07:04.491Z,10.46
2023-04-11T12:08:04.511Z,10.37
2023-04-11T12:09:04.550Z,10.37
2023-04-11T12:10:04.584Z,10.5
2023-04-11T12:11:04.624Z,10.46
2023-04-11T12:12:04.679Z,10.36
2023-04-11T12:13:04.711Z,10.35
2023-04-11T12:14:04.780Z,10.33
2023-04-11T12:15:04.794Z,10.37
2023-04-11T12:16:04.816Z,10.32
2023-04-11T12:17:04.859Z,10.29
2023-04-11T12:18:04.941Z,10.3
2023-04-11T12:19:04.946Z,10.31
2023-04-11T12:20:04.982Z,10.37
2023-04-11T12:21:05.039Z,10.47
2023-04-11T12:22:05.047Z,10.49
2023-04-11T12:23:05.100Z,10.46
2023-04-11T12:24:05.131Z,10.41
2023-04-11T12:25:05.174Z,10.32
2023-04-11T12:26:05.237Z,10.29
2023-04-11T12:27:07.341Z,10.3
2023-04-11T12:28:05.294Z,10.34
2023-04-11T12:29:05.354Z,10.26
2023-04-11T12:30:05.375Z,10.22
2023-04-11T12:31:05.468Z,10.23
2023-04-11T12:32:05.459Z,10.18
2023-04-11T12:33:05.532Z,10.24
2023-04-11T12:34:05.534Z,10.3
2023-04-11T12:35:05.598Z,10.21
2023-04-11T12:36:05.617Z,10.24
2023-04-11T12:37:05.680Z,10.15
2023-04-11T12:38:05.690Z,10.21
2023-04-11T12:39:05.745Z,10.15
2023-04-11T12:40:05.785Z,10.13
2023-04-11T12:41:30.089Z,10.13
2023-04-11T12:42:05.883Z,10.09
2023-04-11T12:43:05.901Z,10.07
2023-04-11T12:44:05.959Z,10.05
2023-04-11T12:45:05.985Z,10.06
2023-04-11T12:46:06.074Z,10.04
2023-04-11T12:47:06.099Z,10.07
2023-04-11T12:48:06.158Z,10.05
2023-04-11T12:49:06.162Z,9.98
2023-04-11T12:50:06.186Z,9.86
2023-04-11T12:51:06.235Z,9.73
2023-04-11T12:52:06.280Z,9.71
2023-04-11T12:53:06.333Z,9.66
2023-04-11T12:54:06.370Z,9.69
2023-04-11T12:55:06.393Z,9.71
2023-04-11T12:56:06.436Z,9.76
2023-04-11T12:57:06.472Z,9.8
2023-04-11T12:58:06.528Z,9.8
2023-04-11T12:59:06.596Z,9.82
2023-04-11T13:00:06.601Z,9.85
2023-04-11T13:01:06.637Z,9.89
2023-04-11T13:02:06.750Z,9.95
2023-04-11T13:03:06.978Z,10.04
2023-04-11T13:04:06.993Z,10.18
2023-04-11T13:06:06.872Z,10.26
2023-04-11T13:07:06.895Z,10.31
2023-04-11T13:08:06.936Z,10.2
2023-04-11T13:09:07.540Z,10.23
2023-04-11T13:10:07.019Z,10.2
2023-04-11T13:11:07.073Z,10.23
2023-04-11T13:12:07.095Z,10.18
2023-04-11T13:13:17.387Z,10.29
2023-04-11T13:14:07.171Z,10.3
2023-04-11T13:15:07.211Z,10.35
2023-04-11T13:16:07.301Z,10.4
2023-04-11T13:17:07.310Z,10.46
2023-04-11T13:18:07.405Z,10.37
2023-04-11T13:19:07.388Z,8.9
2023-04-11T13:20:07.433Z,8.82
2023-04-11T13:21:07.481Z,8.7
2023-04-11T13:22:07.616Z,8.74
2023-04-11T13:24:07.576Z,8.73
2023-04-11T13:25:07.620Z,8.64
2023-04-11T13:26:07.659Z,8.66
2023-04-11T13:27:07.702Z,8.56
2023-04-11T13:28:07.727Z,8.57
2023-04-11T13:29:07.775Z,8.57
2023-04-11T13:30:07.803Z,8.59
2023-04-11T13:31:07.911Z,8.56
2023-04-11T13:32:07.929Z,8.44
2023-04-11T13:33:07.961Z,8.36
2023-04-11T13:34:07.982Z,8.4
2023-04-11T13:35:08.003Z,8.4
2023-04-11T13:36:08.052Z,8.43
2023-04-11T13:37:08.141Z,8.44
2023-04-11T13:38:08.125Z,8.39